Time;durP1;ratioP1;P1;durP2;ratioP2;P2;SDS_P1;SDS_P2;PMS_P1;PMS_P2;Temp;Humidity;BMP_temperature;BMP_pressure;BME280_temperature;BME280_humidity;BME280_pressure;Samples;Min_cycle;Max_cycle;Signal;HPM_P1;HPM_P2
2021/12/26 00:02:06;;;;;;;2.50;1.53;;;;;;;18.51;51.31;99312.84;5049698;28;20505;-56
2021/12/26 00:04:32;;;;;;;2.90;1.47;;;;;;;18.54;50.96;99314.06;5062533;28;20300;-57
2021/12/26 00:06:58;;;;;;;3.10;1.93;;;;;;;18.52;50.79;99317.34;5067857;28;20437;-57
2021/12/26 00:09:23;;;;;;;3.70;1.77;;;;;;;18.56;50.85;99317.38;5071507;28;20463;-56
2021/12/26 00:11:49;;;;;;;4.57;1.60;;;;;;;18.56;51.06;99306.72;5070713;28;20221;-57
2021/12/26 00:14:14;;;;;;;3.93;1.50;;;;;;;18.50;50.92;99294.06;5057954;28;20175;-57
2021/12/26 00:16:42;;;;;;;3.70;1.47;;;;;;;18.51;50.82;99301.41;5070886;28;20175;-57
2021/12/26 00:19:07;;;;;;;3.47;2.00;;;;;;;18.59;51.01;99307.97;5071243;28;20546;-57
2021/12/26 00:21:32;;;;;;;2.83;1.57;;;;;;;18.55;50.95;99302.25;5070473;28;20468;-56
2021/12/26 00:23:59;;;;;;;2.47;1.43;;;;;;;18.54;50.74;99302.63;5070429;28;20638;-57
2021/12/26 00:26:24;;;;;;;2.63;1.57;;;;;;;18.52;50.85;99296.53;5070640;28;20216;-56
2021/12/26 00:28:50;;;;;;;6.30;1.70;;;;;;;18.50;51.27;99304.66;5070405;28;20413;-56
2021/12/26 00:31:16;;;;;;;2.60;1.70;;;;;;;18.49;50.93;99298.16;5070742;28;20166;-57
2021/12/26 00:33:42;;;;;;;3.60;1.97;;;;;;;18.51;51.08;99294.91;5069020;28;20741;-57
2021/12/26 00:36:32;;;;;;;3.90;1.37;;;;;;;18.47;51.11;99292.00;5070344;28;20508;-57
2021/12/26 00:38:58;;;;;;;2.70;1.53;;;;;;;18.50;51.40;99305.50;5063077;28;20292;-57
2021/12/26 00:41:23;;;;;;;2.43;1.70;;;;;;;18.47;51.36;99302.63;5069164;28;20453;-57
2021/12/26 00:43:49;;;;;;;3.30;1.87;;;;;;;18.49;51.03;99301.00;5068677;28;20237;-57
2021/12/26 00:46:14;;;;;;;2.33;1.33;;;;;;;18.59;50.86;99308.78;5055793;28;20179;-57
2021/12/26 00:48:39;;;;;;;3.33;1.97;;;;;;;18.52;50.96;99307.97;5049447;28;20191;-57
2021/12/26 00:51:05;;;;;;;3.53;1.87;;;;;;;18.52;50.69;99302.25;5062734;28;20218;-57
2021/12/26 00:53:32;;;;;;;2.87;1.60;;;;;;;18.47;51.29;99297.72;5050683;28;20167;-57
2021/12/26 00:55:57;;;;;;;2.83;1.57;;;;;;;18.48;51.33;99299.38;5050082;28;20643;-57
2021/12/26 00:58:23;;;;;;;2.90;1.40;;;;;;;18.49;51.10;99300.19;5061852;28;20473;-57
2021/12/26 01:00:48;;;;;;;3.47;2.00;;;;;;;18.52;51.35;99296.53;5067824;28;20191;-57
2021/12/26 01:03:14;;;;;;;2.43;1.40;;;;;;;18.49;51.07;99303.03;5060863;28;20187;-57
2021/12/26 01:05:41;;;;;;;5.73;2.17;;;;;;;18.49;50.88;99297.31;5065516;28;20179;-57
2021/12/26 01:08:08;;;;;;;2.43;1.33;;;;;;;18.49;51.17;99292.44;5068723;28;20159;-57
2021/12/26 01:10:39;;;;;;;4.20;2.17;;;;;;;18.49;50.79;99283.03;5070446;28;20893;-56
2021/12/26 01:13:30;;;;;;;2.17;1.37;;;;;;;18.49;51.17;99286.72;5068686;28;20437;-57
2021/12/26 01:15:57;;;;;;;2.60;1.70;;;;;;;18.50;51.09;99296.09;5054418;28;20876;-57
2021/12/26 01:18:23;;;;;;;3.00;1.67;;;;;;;18.53;50.98;99295.28;5049359;28;20427;-57
2021/12/26 01:20:57;;;;;;;3.20;1.77;;;;;;;18.50;50.86;99293.22;5049541;28;20450;-56
2021/12/26 01:23:23;;;;;;;2.40;1.30;;;;;;;18.50;51.17;99291.22;5055724;28;20255;-57
2021/12/26 01:25:49;;;;;;;6.33;1.40;;;;;;;18.48;50.66;99301.41;5054896;28;20441;-57
2021/12/26 01:28:15;;;;;;;2.60;1.40;;;;;;;18.47;51.20;99303.44;5049230;28;20921;-57
2021/12/26 01:30:41;;;;;;;2.70;1.60;;;;;;;18.45;51.22;99305.91;5049491;28;20414;-57
2021/12/26 01:33:08;;;;;;;2.70;1.57;;;;;;;18.46;51.27;99304.66;5060627;28;20184;-57
2021/12/26 01:35:34;;;;;;;2.47;1.67;;;;;;;18.50;51.26;99305.50;5049419;28;20505;-57
2021/12/26 01:37:59;;;;;;;3.23;1.70;;;;;;;18.46;51.18;99298.16;5055437;28;20929;-56
2021/12/26 01:40:25;;;;;;;3.77;1.70;;;;;;;18.45;51.14;99296.50;5069009;28;20197;-57
2021/12/26 01:42:51;;;;;;;2.83;1.53;;;;;;;18.42;51.45;99300.97;5068656;28;20643;-57
2021/12/26 01:45:17;;;;;;;3.13;1.43;;;;;;;18.47;50.94;99302.63;5062398;28;20268;-56
2021/12/26 01:47:45;;;;;;;3.53;1.53;;;;;;;18.45;51.21;99308.75;5048613;28;20407;-57
2021/12/26 01:50:10;;;;;;;3.77;1.50;;;;;;;18.45;51.26;99310.78;5048038;28;20215;-57
2021/12/26 01:52:36;;;;;;;3.00;1.37;;;;;;;18.45;50.96;99305.06;5050624;28;20827;-57
2021/12/26 01:55:21;;;;;;;2.93;1.50;;;;;;;18.38;51.29;99303.03;5069540;28;20187;-57
2021/12/26 01:57:48;;;;;;;2.60;1.50;;;;;;;18.40;51.71;99311.16;5068623;28;20218;-56
2021/12/26 02:00:14;;;;;;;2.13;1.20;;;;;;;18.40;51.19;99312.00;5069282;28;20816;-57
2021/12/26 02:02:40;;;;;;;3.23;1.40;;;;;;;18.42;50.92;99314.47;5060817;28;20422;-57
2021/12/26 02:05:05;;;;;;;2.73;1.40;;;;;;;18.42;51.19;99320.97;5063206;28;20939;-57
2021/12/26 02:07:31;;;;;;;2.60;1.57;;;;;;;18.38;51.21;99320.16;5067981;28;20199;-57
2021/12/26 02:09:56;;;;;;;2.57;1.77;;;;;;;18.38;51.71;99319.34;5063665;28;20582;-57
2021/12/26 02:12:22;;;;;;;3.67;1.40;;;;;;;18.38;51.38;99313.63;5068651;28;20170;-56
2021/12/26 02:14:47;;;;;;;2.60;1.67;;;;;;;18.39;51.25;99316.09;5069151;28;20190;-57
2021/12/26 02:17:15;;;;;;;3.37;1.47;;;;;;;18.40;51.13;99323.44;5067993;28;20393;-56
2021/12/26 02:19:41;;;;;;;2.20;1.40;;;;;;;18.38;51.55;99325.88;5069323;28;20550;-57
2021/12/26 02:22:14;;;;;;;2.60;1.60;;;;;;;18.40;51.07;99329.16;5068653;28;20445;-57
2021/12/26 02:27:33;;;;;;;3.77;1.73;;;;;;;18.36;51.45;99325.44;5068887;28;20479;-57
2021/12/26 02:30:07;;;;;;;2.50;1.47;;;;;;;18.40;51.36;99326.28;5073722;28;20427;-57
2021/12/26 02:32:33;;;;;;;2.77;1.50;;;;;;;18.38;51.19;99325.06;5072938;28;20951;-57
2021/12/26 02:34:59;;;;;;;2.90;1.47;;;;;;;18.37;51.55;99323.44;5071906;28;20419;-57
2021/12/26 02:37:25;;;;;;;2.67;1.57;;;;;;;18.36;51.47;99328.31;5067450;28;20566;-57
2021/12/26 02:39:50;;;;;;;2.03;1.20;;;;;;;18.40;51.31;99328.31;5072779;28;20947;-57
2021/12/26 02:42:20;;;;;;;4.40;1.30;;;;;;;18.41;51.11;99333.63;5072237;28;20453;-57
2021/12/26 02:44:46;;;;;;;2.80;1.43;;;;;;;18.41;51.31;99324.25;5071507;28;20584;-57
2021/12/26 02:47:11;;;;;;;2.73;1.27;;;;;;;18.43;51.01;99328.34;5067369;28;20429;-57
2021/12/26 02:49:37;;;;;;;2.77;1.40;;;;;;;18.38;51.39;99325.06;5071658;28;20201;-57
2021/12/26 02:52:02;;;;;;;2.37;1.27;;;;;;;18.35;51.40;99329.53;5067170;28;20622;-57
2021/12/26 02:54:28;;;;;;;4.20;1.97;;;;;;;18.38;51.41;99325.88;5062824;28;20194;-57
2021/12/26 02:56:54;;;;;;;2.67;1.47;;;;;;;18.39;51.83;99330.38;5069080;28;20229;-57
2021/12/26 02:59:19;;;;;;;2.30;1.23;;;;;;;18.37;51.66;99326.28;5051882;28;20247;-57
2021/12/26 03:01:45;;;;;;;2.10;1.30;;;;;;;18.36;51.56;99328.31;5051996;28;20199;-56
2021/12/26 03:04:10;;;;;;;2.33;1.50;;;;;;;18.35;51.66;99329.53;5063244;28;20179;-56
2021/12/26 03:06:44;;;;;;;2.30;1.30;;;;;;;18.37;51.62;99321.38;5070131;28;20203;-57
2021/12/26 03:09:09;;;;;;;2.50;1.37;;;;;;;18.40;51.49;99329.16;5070154;28;20181;-57
2021/12/26 03:11:38;;;;;;;2.23;1.20;;;;;;;18.43;51.06;99327.53;5063548;28;20926;-57
2021/12/26 03:14:04;;;;;;;2.47;1.47;;;;;;;18.36;51.37;99322.59;5068256;28;20635;-57
2021/12/26 03:16:29;;;;;;;2.67;1.10;;;;;;;18.37;51.31;99317.72;5070367;28;20440;-57
2021/12/26 03:18:58;;;;;;;4.67;1.40;;;;;;;18.34;51.73;99322.19;5057470;28;20172;-57
2021/12/26 03:21:24;;;;;;;2.73;1.33;;;;;;;18.34;51.62;99325.06;5053544;28;20199;-56
2021/12/26 03:23:49;;;;;;;2.17;1.20;;;;;;;18.43;50.93;99316.91;5061350;28;20822;-57
2021/12/26 03:26:15;;;;;;;2.00;1.20;;;;;;;18.36;51.51;99322.59;5071858;28;20171;-57
2021/12/26 03:28:40;;;;;;;2.63;1.30;;;;;;;18.34;52.36;99324.22;5071367;28;20232;-57
2021/12/26 03:31:06;;;;;;;2.20;1.10;;;;;;;18.35;51.42;99328.72;5072613;28;20160;-57
2021/12/26 03:33:31;;;;;;;2.30;1.50;;;;;;;18.37;51.44;99324.22;5069397;28;20190;-57
2021/12/26 03:35:57;;;;;;;1.97;1.07;;;;;;;18.35;51.34;99337.28;5051030;28;20167;-57
2021/12/26 03:38:22;;;;;;;2.40;1.50;;;;;;;18.37;51.00;99323.44;5060865;28;20187;-57
2021/12/26 03:40:49;;;;;;;2.30;1.30;;;;;;;18.33;51.77;99329.13;5070526;28;20191;-57
2021/12/26 03:43:15;;;;;;;2.43;1.10;;;;;;;18.34;51.27;99329.94;5069979;28;20187;-56
2021/12/26 03:45:40;;;;;;;3.40;1.20;;;;;;;18.28;51.83;99326.63;5065120;28;20738;-57
2021/12/26 03:48:06;;;;;;;2.77;1.40;;;;;;;18.31;51.50;99328.66;5055648;28;20586;-57
2021/12/26 03:50:32;;;;;;;2.50;1.33;;;;;;;18.33;51.64;99325.44;5050936;28;20539;-57
2021/12/26 03:52:58;;;;;;;1.90;1.00;;;;;;;18.30;51.84;99329.06;5052112;28;20171;-57
2021/12/26 03:55:26;;;;;;;3.40;1.37;;;;;;;18.34;51.30;99327.91;5058583;28;20437;-58
2021/12/26 03:57:53;;;;;;;3.17;1.20;;;;;;;18.30;51.31;99324.19;5052258;28;20242;-57
2021/12/26 04:00:18;;;;;;;2.10;1.30;;;;;;;18.32;51.31;99321.75;5060124;28;20511;-56
2021/12/26 04:02:44;;;;;;;3.00;1.43;;;;;;;18.33;51.54;99328.31;5056547;28;20422;-56
2021/12/26 04:05:10;;;;;;;2.40;1.23;;;;;;;18.35;51.34;99337.28;5052202;28;20198;-57
2021/12/26 04:07:36;;;;;;;2.43;1.33;;;;;;;18.32;51.53;99333.19;5062555;28;20199;-56
2021/12/26 04:10:02;;;;;;;3.40;1.50;;;;;;;18.34;51.78;99335.66;5050070;28;20459;-57
2021/12/26 04:12:35;;;;;;;2.10;1.20;;;;;;;18.33;51.19;99323.41;5050611;28;20211;-57
2021/12/26 04:15:01;;;;;;;3.30;1.47;;;;;;;18.35;51.28;99323.00;5055903;28;20434;-57
2021/12/26 04:17:26;;;;;;;3.53;1.33;;;;;;;18.33;51.74;99323.41;5057214;28;20426;-57
2021/12/26 04:19:51;;;;;;;2.30;1.37;;;;;;;18.35;51.36;99332.41;5050100;28;20402;-56
2021/12/26 04:22:17;;;;;;;2.93;1.47;;;;;;;18.34;51.18;99329.94;5051370;28;20271;-57
2021/12/26 04:24:42;;;;;;;2.17;1.43;;;;;;;18.32;51.67;99330.34;5058860;28;20186;-57
2021/12/26 04:27:08;;;;;;;2.53;1.30;;;;;;;18.36;51.67;99334.03;5064392;28;20191;-57
2021/12/26 04:29:33;;;;;;;2.40;1.40;;;;;;;18.38;51.17;99331.59;5051947;28;20176;-56
2021/12/26 04:31:58;;;;;;;2.80;1.30;;;;;;;18.36;51.56;99336.88;5049772;28;20148;-56
2021/12/26 04:34:24;;;;;;;2.03;1.37;;;;;;;18.39;51.25;99326.69;5051261;28;20186;-57
2021/12/26 04:36:49;;;;;;;2.10;1.30;;;;;;;18.36;51.37;99334.03;5062744;28;20187;-56
2021/12/26 04:39:15;;;;;;;3.03;1.47;;;;;;;18.40;50.92;99337.72;5070586;28;20625;-57
2021/12/26 04:41:44;;;;;;;2.33;1.20;;;;;;;18.45;51.08;99337.31;5069114;28;20202;-57
2021/12/26 04:44:10;;;;;;;2.90;1.13;;;;;;;18.42;51.47;99337.31;5065456;28;20197;-57
2021/12/26 04:46:35;;;;;;;2.03;1.10;;;;;;;18.41;51.24;99335.69;5069842;28;20429;-56
2021/12/26 04:49:01;;;;;;;1.90;0.90;;;;;;;18.40;51.28;99334.88;5063642;28;20209;-56
2021/12/26 04:51:26;;;;;;;2.70;1.40;;;;;;;18.36;51.35;99334.03;5051524;28;20176;-57
2021/12/26 04:53:51;;;;;;;2.57;1.10;;;;;;;18.36;51.08;99339.75;5053586;28;20186;-56
2021/12/26 04:56:17;;;;;;;2.77;1.40;;;;;;;18.35;51.74;99340.13;5060837;28;20577;-57
2021/12/26 04:58:42;;;;;;;2.23;1.30;;;;;;;18.37;51.41;99335.66;5049037;28;20694;-57
2021/12/26 05:01:08;;;;;;;2.53;1.40;;;;;;;18.37;51.15;99347.09;5049903;28;20207;-57
2021/12/26 05:03:33;;;;;;;2.10;1.27;;;;;;;18.42;51.47;99343.03;5050754;28;20192;-56
2021/12/26 05:05:59;;;;;;;2.40;1.00;;;;;;;18.39;51.85;99338.13;5068282;28;20257;-57
2021/12/26 05:08:24;;;;;;;2.67;1.40;;;;;;;18.41;51.37;99345.06;5061207;28;20627;-56
2021/12/26 05:10:50;;;;;;;2.27;1.33;;;;;;;18.37;51.14;99340.56;5061361;28;20519;-57
2021/12/26 05:13:15;;;;;;;2.47;1.43;;;;;;;18.38;51.01;99345.88;5056654;28;20209;-57
2021/12/26 05:15:41;;;;;;;2.87;1.30;;;;;;;18.38;51.45;99343.03;5058117;28;20666;-57
2021/12/26 05:18:06;;;;;;;2.47;1.37;;;;;;;18.38;51.29;99339.34;5049274;28;20198;-56
2021/12/26 05:20:32;;;;;;;3.03;1.37;;;;;;;18.36;51.16;99342.59;5050062;28;20571;-57
2021/12/26 05:22:57;;;;;;;2.13;1.20;;;;;;;18.36;51.08;99344.66;5058298;28;20262;-57
2021/12/26 05:25:23;;;;;;;2.10;1.20;;;;;;;18.36;51.62;99348.31;5053660;28;20186;-56
2021/12/26 05:27:48;;;;;;;2.23;1.33;;;;;;;18.36;51.43;99342.59;5053725;28;20328;-56
2021/12/26 05:30:16;;;;;;;1.93;1.00;;;;;;;18.42;50.75;99343.84;5053871;28;20992;-56
2021/12/26 05:32:42;;;;;;;3.10;1.53;;;;;;;18.40;50.94;99342.59;5048557;28;20225;-57
2021/12/26 05:35:08;;;;;;;2.13;1.00;;;;;;;18.43;51.09;99342.66;5063170;28;20441;-57
2021/12/26 05:37:33;;;;;;;2.20;1.20;;;;;;;18.37;50.97;99337.72;5061141;28;20271;-57
2021/12/26 05:40:02;;;;;;;2.13;1.17;;;;;;;18.37;51.26;99337.72;5055819;28;20795;-56
2021/12/26 05:42:27;;;;;;;2.10;1.20;;;;;;;18.35;51.53;99338.13;5063553;28;20185;-56
2021/12/26 05:44:53;;;;;;;1.87;1.10;;;;;;;18.40;51.17;99334.03;5067914;28;20628;-56
2021/12/26 05:47:18;;;;;;;2.17;1.17;;;;;;;18.39;51.19;99341.81;5062777;28;20228;-57
2021/12/26 05:49:44;;;;;;;2.00;1.20;;;;;;;18.40;50.92;99339.75;5069046;28;20228;-57
2021/12/26 05:52:09;;;;;;;2.00;1.33;;;;;;;18.42;50.78;99337.31;5065451;28;20631;-56
2021/12/26 05:54:35;;;;;;;2.10;1.07;;;;;;;18.41;51.08;99341.41;5064903;28;20175;-56
2021/12/26 05:57:00;;;;;;;2.40;1.30;;;;;;;18.43;51.05;99336.94;5068598;28;20175;-57
2021/12/26 05:59:26;;;;;;;1.73;0.93;;;;;;;18.42;51.01;99343.84;5063885;28;20235;-57
2021/12/26 06:01:51;;;;;;;3.10;1.13;;;;;;;18.40;50.96;99337.72;5048855;28;20204;-56
2021/12/26 06:04:17;;;;;;;3.07;1.47;;;;;;;18.42;50.96;99348.75;5059415;28;20175;-57
2021/12/26 06:06:44;;;;;;;2.30;1.40;;;;;;;18.34;51.23;99347.91;5068155;28;20260;-57
2021/12/26 06:09:09;;;;;;;2.30;1.07;;;;;;;18.37;51.23;99341.38;5063479;28;20179;-57
2021/12/26 06:11:34;;;;;;;2.07;1.20;;;;;;;18.38;51.38;99347.91;5068101;28;20445;-57
2021/12/26 06:14:00;;;;;;;2.00;1.17;;;;;;;18.46;51.15;99341.81;5067918;28;20194;-57
2021/12/26 06:16:25;;;;;;;1.93;1.00;;;;;;;18.48;51.24;99341.41;5068092;28;20635;-57
2021/12/26 06:18:51;;;;;;;2.00;1.10;;;;;;;18.47;50.93;99351.22;5065957;28;20182;-57
2021/12/26 06:21:16;;;;;;;2.43;1.40;;;;;;;18.44;51.14;99355.69;5048928;28;20199;-57
2021/12/26 06:23:43;;;;;;;2.23;1.20;;;;;;;18.46;50.97;99347.53;5052931;28;20194;-56
2021/12/26 06:26:08;;;;;;;2.10;1.10;;;;;;;18.50;50.93;99345.50;5069231;28;20175;-57
2021/12/26 06:28:34;;;;;;;1.97;1.10;;;;;;;18.46;50.94;99350.38;5068488;28;20420;-56
2021/12/26 06:30:59;;;;;;;2.10;1.10;;;;;;;18.43;50.84;99344.66;5064292;28;20709;-57
2021/12/26 06:33:24;;;;;;;2.33;1.40;;;;;;;18.47;50.67;99340.59;5048656;28;20223;-57
2021/12/26 06:35:50;;;;;;;2.00;1.10;;;;;;;18.47;50.73;99346.31;5053717;28;20304;-56
2021/12/26 06:38:16;;;;;;;2.47;1.33;;;;;;;18.43;50.91;99344.66;5063845;28;20605;-57
2021/12/26 06:40:41;;;;;;;2.50;1.30;;;;;;;18.46;51.01;99338.97;5068138;28;20199;-57
2021/12/26 06:43:08;;;;;;;2.27;1.20;;;;;;;18.48;50.84;99342.25;5067506;28;20440;-56
2021/12/26 06:45:33;;;;;;;2.10;1.30;;;;;;;18.48;50.74;99344.28;5054686;28;20171;-57
2021/12/26 06:48:02;;;;;;;2.10;1.17;;;;;;;18.49;50.60;99343.88;5058705;28;20434;-57
2021/12/26 06:50:27;;;;;;;2.30;1.27;;;;;;;18.45;50.96;99345.06;5048572;28;20203;-57
2021/12/26 06:52:52;;;;;;;2.00;1.00;;;;;;;18.48;50.91;99341.41;5054229;28;20844;-57
2021/12/26 06:55:18;;;;;;;1.90;1.00;;;;;;;18.47;50.74;99336.94;5063578;28;20179;-57
2021/12/26 06:57:44;;;;;;;2.13;1.10;;;;;;;18.45;51.01;99351.63;5067278;28;20555;-57
2021/12/26 07:00:11;;;;;;;2.40;1.20;;;;;;;18.44;50.89;99352.84;5053389;28;20230;-56
2021/12/26 07:02:37;;;;;;;2.10;1.20;;;;;;;18.47;50.91;99357.72;5059159;28;20175;-57
2021/12/26 07:05:03;;;;;;;1.80;1.10;;;;;;;18.47;50.90;99359.78;5059045;28;20830;-57
2021/12/26 07:07:28;;;;;;;2.03;0.90;;;;;;;18.49;51.19;99360.19;5066732;28;20199;-57
2021/12/26 07:09:53;;;;;;;2.57;1.40;;;;;;;18.46;51.14;99364.69;5057319;28;20554;-56
2021/12/26 07:12:19;;;;;;;2.03;1.27;;;;;;;18.49;50.70;99366.75;5047914;28;20468;-57
2021/12/26 07:14:44;;;;;;;2.60;1.30;;;;;;;18.49;50.92;99369.59;5051237;28;20582;-57
2021/12/26 07:17:12;;;;;;;1.83;1.10;;;;;;;18.44;50.76;99375.72;5052109;28;20600;-57
2021/12/26 07:19:38;;;;;;;3.90;1.57;;;;;;;18.45;51.35;99371.63;5055782;28;20179;-57
2021/12/26 07:22:04;;;;;;;2.00;1.20;;;;;;;18.47;51.06;99377.75;5071795;28;20508;-57
2021/12/26 07:24:29;;;;;;;2.10;1.33;;;;;;;18.46;50.99;99367.53;5071385;28;20183;-57
2021/12/26 07:26:55;;;;;;;3.03;1.50;;;;;;;18.46;50.92;99375.31;5070742;28;20260;-56
2021/12/26 07:29:20;;;;;;;2.67;1.20;;;;;;;18.47;50.80;99374.88;5071485;28;20163;-57
2021/12/26 07:31:45;;;;;;;2.80;1.40;;;;;;;18.46;51.10;99378.16;5070797;28;20182;-57
2021/12/26 07:34:11;;;;;;;1.90;1.10;;;;;;;18.48;50.84;99376.53;5071907;28;20183;-57
2021/12/26 07:36:36;;;;;;;2.53;1.10;;;;;;;18.48;50.83;99382.25;5067660;28;20213;-57
2021/12/26 07:39:03;;;;;;;2.33;1.30;;;;;;;18.46;50.81;99378.97;5070772;28;20183;-56
2021/12/26 07:41:28;;;;;;;3.17;1.00;;;;;;;18.47;51.02;99385.50;5071106;28;20199;-57
2021/12/26 07:43:54;;;;;;;2.20;1.00;;;;;;;18.48;50.93;99382.25;5071549;28;20939;-57
2021/12/26 07:46:19;;;;;;;2.07;1.00;;;;;;;18.50;50.76;99381.84;5071227;28;20178;-57
2021/12/26 07:48:45;;;;;;;2.23;1.40;;;;;;;18.48;50.91;99384.28;5070414;28;20519;-57
2021/12/26 07:51:10;;;;;;;2.27;1.13;;;;;;;18.50;51.09;99385.53;5070013;28;20162;-57
2021/12/26 07:53:36;;;;;;;3.10;1.10;;;;;;;18.44;50.82;99384.28;5070471;28;20245;-57
2021/12/26 07:56:01;;;;;;;3.97;1.30;;;;;;;18.48;51.13;99381.44;5066409;28;20175;-57
2021/12/26 07:58:26;;;;;;;1.83;1.13;;;;;;;18.51;51.12;99387.16;5069328;28;20219;-57
2021/12/26 08:00:52;;;;;;;1.70;1.00;;;;;;;18.45;51.08;99388.78;5060336;28;20204;-57
2021/12/26 08:03:17;;;;;;;2.03;1.10;;;;;;;18.48;50.87;99387.97;5066019;28;20653;-57
2021/12/26 08:05:43;;;;;;;2.33;1.30;;;;;;;18.45;51.14;99387.94;5070602;28;20190;-56
2021/12/26 08:08:08;;;;;;;2.27;1.27;;;;;;;18.47;50.93;99394.88;5071254;28;20672;-56
2021/12/26 08:10:34;;;;;;;2.70;1.27;;;;;;;18.53;51.14;99393.31;5071002;28;20198;-57
2021/12/26 08:12:59;;;;;;;1.80;1.10;;;;;;;18.52;50.58;99393.69;5070661;28;20531;-57
2021/12/26 08:15:25;;;;;;;1.93;1.03;;;;;;;18.46;51.05;99390.41;5067790;28;20183;-57
2021/12/26 08:17:50;;;;;;;2.10;1.17;;;;;;;18.50;50.79;99396.13;5071316;28;20178;-57
2021/12/26 08:20:16;;;;;;;2.47;1.30;;;;;;;18.53;50.76;99392.47;5070974;28;20178;-56
2021/12/26 08:22:41;;;;;;;2.20;1.17;;;;;;;18.57;50.51;99399.03;5070488;28;20197;-57
2021/12/26 08:25:07;;;;;;;2.30;1.20;;;;;;;18.48;50.96;99401.44;5062960;28;20191;-56
2021/12/26 08:27:32;;;;;;;1.70;1.00;;;;;;;18.50;51.03;99402.69;5070494;28;20249;-56
2021/12/26 08:29:59;;;;;;;1.70;1.00;;;;;;;18.47;51.01;99394.88;5058777;28;20171;-56
2021/12/26 08:32:25;;;;;;;3.20;1.20;;;;;;;18.51;50.48;99395.72;5058881;28;20202;-57
2021/12/26 08:34:51;;;;;;;2.20;1.10;;;;;;;18.45;51.29;99396.50;5051271;28;20485;-57
2021/12/26 08:37:16;;;;;;;2.93;1.07;;;;;;;18.50;51.15;99401.84;5053583;28;20635;-57
2021/12/26 08:39:43;;;;;;;2.20;1.23;;;;;;;18.55;50.91;99401.44;5070831;28;20178;-57
2021/12/26 08:42:09;;;;;;;2.40;1.40;;;;;;;18.48;50.98;99401.44;5064528;28;20558;-57
2021/12/26 08:44:35;;;;;;;1.80;0.90;;;;;;;18.48;51.08;99399.41;5051131;28;20426;-57
2021/12/26 08:47:00;;;;;;;2.67;1.57;;;;;;;18.51;50.75;99404.31;5050785;28;21198;-57
2021/12/26 08:49:27;;;;;;;2.40;1.30;;;;;;;18.50;50.75;99394.09;5063207;28;20426;-57
2021/12/26 08:51:52;;;;;;;1.80;0.90;;;;;;;18.52;51.37;99397.38;5050489;28;20253;-56
2021/12/26 08:54:18;;;;;;;1.77;1.20;;;;;;;18.57;50.54;99402.69;5058301;28;20446;-57
2021/12/26 08:56:44;;;;;;;2.03;1.10;;;;;;;18.51;50.61;99403.50;5051796;28;20679;-57
2021/12/26 08:59:09;;;;;;;2.20;1.30;;;;;;;18.54;50.63;99409.22;5050412;28;20215;-57
2021/12/26 09:01:35;;;;;;;1.87;1.00;;;;;;;18.57;50.64;99396.16;5061119;28;20647;-57
2021/12/26 09:04:00;;;;;;;1.90;1.10;;;;;;;18.55;50.84;99390.84;5051109;28;20176;-56
2021/12/26 09:06:25;;;;;;;1.70;0.90;;;;;;;18.54;51.13;99402.69;5070628;28;20198;-57
2021/12/26 09:08:51;;;;;;;1.93;1.17;;;;;;;18.50;50.75;99399.81;5053495;28;20176;-56
2021/12/26 09:11:17;;;;;;;2.33;1.00;;;;;;;18.51;50.93;99394.94;5054708;28;20236;-57
2021/12/26 09:13:43;;;;;;;2.40;1.20;;;;;;;18.50;50.95;99396.13;5064842;28;20175;-57
2021/12/26 09:16:09;;;;;;;2.10;1.10;;;;;;;18.53;50.71;99401.06;5068299;28;20171;-57
2021/12/26 09:18:34;;;;;;;2.20;1.30;;;;;;;18.44;51.05;99409.19;5062160;28;20422;-57
2021/12/26 09:21:00;;;;;;;1.97;1.10;;;;;;;18.51;51.25;99412.88;5049558;28;20204;-56
2021/12/26 09:23:25;;;;;;;2.87;1.53;;;;;;;18.50;51.12;99419.00;5056199;28;20179;-57
2021/12/26 09:25:50;;;;;;;2.27;1.33;;;;;;;18.50;50.87;99419.81;5066270;28;20190;-57
2021/12/26 09:28:16;;;;;;;2.20;1.20;;;;;;;18.49;51.11;99415.34;5066836;28;20232;-57
2021/12/26 09:30:41;;;;;;;2.40;1.50;;;;;;;18.48;50.75;99422.28;5065368;28;20221;-57
2021/12/26 09:33:07;;;;;;;2.00;1.00;;;;;;;18.47;51.16;99428.38;5069233;28;20190;-57
2021/12/26 09:35:32;;;;;;;2.27;1.20;;;;;;;18.46;51.02;99421.03;5068678;28;20190;-57
2021/12/26 09:37:58;;;;;;;2.30;1.50;;;;;;;18.49;50.97;99423.91;5051712;28;20191;-56
2021/12/26 09:40:23;;;;;;;2.03;1.20;;;;;;;18.49;50.82;99421.06;5049937;28;20200;-56
2021/12/26 09:42:49;;;;;;;2.50;1.17;;;;;;;18.46;51.00;99423.91;5066042;28;20183;-56
2021/12/26 09:45:15;;;;;;;2.53;1.10;;;;;;;18.47;50.86;99417.75;5067503;28;20544;-58
2021/12/26 09:47:40;;;;;;;1.80;1.30;;;;;;;18.46;51.32;99432.47;5067979;28;20270;-57
2021/12/26 09:50:07;;;;;;;1.80;1.00;;;;;;;18.51;50.78;99430.03;5064875;28;20183;-57
2021/12/26 09:52:32;;;;;;;2.10;1.23;;;;;;;18.51;51.11;99421.44;5067543;28;20216;-57
2021/12/26 09:54:59;;;;;;;1.80;1.00;;;;;;;18.51;51.05;99418.59;5066167;28;20426;-57
2021/12/26 09:57:25;;;;;;;2.60;1.27;;;;;;;18.51;50.81;99424.31;5067781;28;20206;-57
2021/12/26 09:59:50;;;;;;;2.00;1.30;;;;;;;18.47;51.13;99414.91;5068591;28;20838;-57
2021/12/26 10:02:16;;;;;;;2.13;1.30;;;;;;;18.45;51.34;99413.66;5068608;28;20223;-56
2021/12/26 10:04:42;;;;;;;2.57;1.20;;;;;;;18.49;51.02;99405.94;5068044;28;20717;-57
2021/12/26 10:07:12;;;;;;;2.13;1.00;;;;;;;18.48;50.79;99399.41;5068036;28;20198;-56
2021/12/26 10:09:42;;;;;;;2.40;1.20;;;;;;;18.46;51.36;99396.13;5065803;28;20940;-57
2021/12/26 10:12:08;;;;;;;2.67;1.30;;;;;;;18.47;51.09;99391.22;5063334;28;20469;-56
2021/12/26 10:14:37;;;;;;;2.30;1.20;;;;;;;18.48;51.15;99387.97;5049002;28;20481;-56
2021/12/26 10:17:08;;;;;;;1.47;0.87;;;;;;;18.55;50.84;99390.84;5055659;28;20433;-57
2021/12/26 10:19:44;;;;;;;3.17;1.53;;;;;;;18.46;51.25;99389.59;5052971;28;20433;-57
2021/12/26 10:22:11;;;;;;;2.37;1.27;;;;;;;18.47;51.21;99383.47;5047802;28;20460;-56
2021/12/26 10:24:38;;;;;;;4.63;1.30;;;;;;;18.48;51.23;99381.44;5068758;28;21041;-57
2021/12/26 10:27:11;;;;;;;1.80;1.00;;;;;;;18.52;51.09;99385.94;5068345;28;20417;-57
2021/12/26 10:29:43;;;;;;;2.27;1.20;;;;;;;18.49;51.18;99386.75;5068697;28;20441;-56
2021/12/26 10:32:08;;;;;;;2.03;1.23;;;;;;;18.52;51.07;99383.06;5064474;28;20433;-56
2021/12/26 10:34:36;;;;;;;1.87;1.20;;;;;;;18.51;51.21;99377.78;5068925;28;20417;-57
2021/12/26 10:37:04;;;;;;;2.17;1.27;;;;;;;18.50;50.97;99374.09;5065510;28;20623;-57
2021/12/26 10:39:36;;;;;;;2.30;1.37;;;;;;;18.49;51.08;99371.63;5065517;28;20928;-57
2021/12/26 10:42:04;;;;;;;2.43;1.20;;;;;;;18.55;50.98;99370.00;5067982;28;20914;-57
2021/12/26 10:44:32;;;;;;;1.80;1.10;;;;;;;18.53;50.77;99361.88;5067782;28;20452;-56
2021/12/26 10:47:05;;;;;;;1.93;1.20;;;;;;;18.52;50.84;99368.78;5067151;28;20575;-57
2021/12/26 10:49:42;;;;;;;2.00;1.00;;;;;;;18.52;51.10;99370.84;5069302;28;20494;-56
2021/12/26 10:52:16;;;;;;;3.60;1.20;;;;;;;18.48;51.07;99370.81;5054490;28;20836;-57
2021/12/26 10:54:44;;;;;;;2.43;1.43;;;;;;;18.51;51.09;99372.06;5051461;28;20414;-57
2021/12/26 10:57:19;;;;;;;1.87;1.20;;;;;;;18.54;51.05;99376.94;5064174;28;20512;-56
2021/12/26 10:59:46;;;;;;;2.97;1.33;;;;;;;18.51;51.06;99375.72;5067179;28;20477;-56
2021/12/26 11:02:21;;;;;;;3.30;1.50;;;;;;;18.52;50.97;99368.78;5051502;28;20981;-57
2021/12/26 11:04:53;;;;;;;2.10;1.23;;;;;;;18.52;50.84;99377.34;5052508;28;20409;-57
2021/12/26 11:07:20;;;;;;;2.23;1.40;;;;;;;18.47;51.12;99374.09;5053770;28;21018;-57
2021/12/26 11:09:45;;;;;;;3.50;1.10;;;;;;;18.51;51.15;99375.72;5067532;28;20456;-56
2021/12/26 11:12:11;;;;;;;2.77;1.20;;;;;;;18.48;51.19;99364.28;5071748;28;20912;-57
2021/12/26 11:14:58;;;;;;;2.00;1.33;;;;;;;18.54;50.83;99369.22;5072056;28;20171;-56
2021/12/26 11:17:30;;;;;;;2.10;1.40;;;;;;;18.57;50.81;99362.66;5071014;28;20190;-57
2021/12/26 11:19:56;;;;;;;2.67;1.10;;;;;;;18.59;51.30;99368.00;5054070;28;20431;-56
2021/12/26 11:22:22;;;;;;;5.00;1.67;;;;;;;18.43;50.34;99359.78;5051936;28;20473;-57
2021/12/26 11:24:48;;;;;;;9.10;4.47;;;;;;;18.30;49.85;99357.63;5057770;28;20697;-57
2021/12/26 11:27:17;;;;;;;5.87;3.50;;;;;;;18.22;49.79;99347.41;5051248;28;20429;-57
2021/12/26 11:29:42;;;;;;;7.13;4.30;;;;;;;18.20;49.24;99352.69;5061090;28;20551;-56
2021/12/26 11:32:08;;;;;;;7.57;4.40;;;;;;;18.15;49.86;99345.34;5066665;28;20413;-57
2021/12/26 11:34:33;;;;;;;7.13;4.17;;;;;;;18.02;49.98;99341.19;5065156;28;20196;-57